Latest Weather Observations for Mount Gambier

IDS60801

Issued at 6:02 pm CDT Friday 27 February 2015 (issued every 30 minutes, with the page automatically refreshed every 10 minutes)

About weather observations | Map of weather stations | Latest weather observations for SA | Other Formats
Station Details ID: 026021 Name: MOUNT GAMBIER AERO Lat: -37.75 Lon: 140.77 Height: 63.0 m
Data from the previous 72 hours. | See also: Recent months at Mount Gambier
Date/Time
CDT
Temp
°C
App
Temp
°C
Dew
Point
Rel
Hum
%
Delta-T
°C
Wind Press
QNH
hPa
Press
MSL
hPa
Rain
since 9 am
mm
Dir
 
Spd
km/h
Gust
km/h
Spd
kts
Gust
kts
27/06:00pm 19.3 17.0 11.9 62 4.1 S 15 19 8 10 1009.5 1009.4 0.0
27/05:30pm 19.3 15.8 12.1 63 4.0 S 22 28 12 15 1009.4 - 0.0
27/05:00pm 20.2 15.9 12.0 59 4.6 S 26 32 14 17 1009.2 - 0.0
27/04:30pm 20.9 16.3 12.2 57 4.9 S 28 33 15 18 1009.0 - 0.0
27/04:00pm 23.5 20.0 12.1 48 6.5 S 22 30 12 16 1008.7 - 0.0
27/03:30pm 25.3 22.0 10.9 40 8.1 SSE 19 26 10 14 1008.8 - 0.0
27/03:00pm 24.5 22.8 8.5 36 8.6 SSW 7 13 4 7 1009.0 1008.9 0.0
27/02:30pm 24.4 22.8 8.9 37 8.4 SSE 7 11 4 6 1009.5 - 0.0
27/02:00pm 24.1 22.8 9.9 40 7.8 SSE 7 17 4 9 1009.8 - 0.0
27/01:30pm 23.1 21.0 11.1 46 6.7 S 13 20 7 11 1010.4 - 0.0
27/01:00pm 22.6 20.9 11.3 48 6.3 SW 11 19 6 10 1011.0 - 0.0
27/12:30pm 22.2 21.3 11.5 50 6.0 NNE 7 13 4 7 1011.0 - 0.0
27/12:00pm 20.7 19.8 11.5 55 5.1 NNW 7 11 4 6 1011.1 1011.0 0.0
27/11:30am 18.7 18.1 12.2 66 3.6 E 7 11 4 6 1011.7 - 0.0
27/11:05am 17.6 16.6 13.4 76 2.4 E 11 17 6 9 1011.9 - 0.0
27/11:00am 17.8 16.8 13.4 75 2.5 E 11 17 6 9 1012.0 - 0.0
27/10:30am 16.9 15.6 13.7 81 1.8 E 13 17 7 9 1012.0 - 0.0
27/10:00am 15.2 14.9 14.5 96 0.4 E 9 15 5 8 1012.2 - 0.0
27/09:30am 14.6 13.9 14.2 97 0.2 ENE 11 15 6 8 1012.0 - 0.0
27/09:28am 14.4 13.3 14.4 100 0.0 ENE 13 17 7 9 1011.9 - 0.0
27/09:00am 14.3 13.6 14.3 100 0.0 ENE 11 15 6 8 1011.8 1011.6 0.0
27/08:30am 14.0 12.8 14.0 100 0.0 ENE 13 17 7 9 1011.4 - 0.0
27/08:00am 13.2 12.4 13.0 99 0.1 ENE 9 13 5 7 1011.6 - 0.0
27/07:30am 12.2 12.8 12.0 99 0.1 CALM 0 0 0 0 1011.6 - 0.0
27/07:00am 11.9 11.7 11.7 99 0.1 NE 4 7 2 4 1011.1 - 0.0
27/06:30am 12.1 11.0 11.9 99 0.1 E 9 9 5 5 1010.4 - 0.0
27/06:00am 12.6 13.4 12.4 99 0.1 CALM 0 9 0 5 1010.4 1010.3 0.0
27/05:30am 12.9 12.4 12.5 97 0.2 ENE 7 9 4 5 1010.7 - 0.0
27/05:00am 13.0 13.5 12.8 99 0.1 E 2 7 1 4 1010.4 - 0.0
27/04:30am 13.1 12.7 12.9 99 0.1 ENE 7 9 4 5 1010.4 - 0.0
27/04:00am 13.5 13.1 13.1 97 0.2 E 7 9 4 5 1010.3 - 0.0
27/03:30am 13.8 13.6 13.6 99 0.1 SE 7 9 4 5 1010.6 - 0.0
27/03:00am 14.1 13.9 13.7 97 0.2 WSW 7 7 4 4 1011.1 1011.0 0.0
27/02:30am 14.1 14.1 13.7 97 0.2 W 6 7 3 4 1010.9 - 0.0
27/02:00am 13.1 13.9 12.5 96 0.3 CALM 0 2 0 1 1011.2 - 0.0
27/01:59am 13.1 13.9 12.5 96 0.3 CALM 0 2 0 1 1011.2 - 0.0
27/01:30am 13.7 13.5 13.0 96 0.4 SE 6 9 3 5 1011.1 - 0.0
27/01:18am 14.0 14.6 13.1 94 0.5 SSW 2 6 1 3 1011.8 - 0.0
27/01:00am 14.3 15.1 13.6 96 0.4 NNE 2 9 1 5 1012.1 - 0.0
27/12:30am 15.3 15.5 14.6 96 0.4 SSE 7 7 4 4 1011.9 - 0.0
27/12:00am 16.1 16.4 14.9 93 0.7 S 7 9 4 5 1012.4 1012.2 0.0
 
Date/Time
CDT
Temp
°C
App
Temp
°C
Dew
Point
Rel
Hum
%
Delta-T
°C
Wind Press
QNH
hPa
Press
MSL
hPa
Rain
since 9 am
mm
Dir
 
Spd
km/h
Gust
km/h
Spd
kts
Gust
kts
26/11:30pm 16.3 16.2 14.9 91 0.8 SW 9 11 5 6 1012.5 - 0.0
26/11:00pm 16.4 15.9 14.8 90 0.9 SW 11 13 6 7 1012.3 - 0.0
26/10:30pm 16.7 16.1 14.6 87 1.2 SW 11 15 6 8 1012.2 - 0.0
26/10:00pm 17.6 16.6 14.7 83 1.7 SW 13 17 7 9 1012.4 - 0.0
26/09:30pm 17.8 16.8 14.7 82 1.8 SW 13 17 7 9 1012.3 - 0.0
26/09:20pm 17.9 16.9 14.6 81 1.9 SW 13 17 7 9 1012.3 - 0.0
26/09:00pm 17.9 16.5 14.4 80 2.0 SSW 15 19 8 10 1012.0 1011.8 0.0
26/08:30pm 17.8 16.1 14.7 82 1.8 S 17 22 9 12 1011.8 - 0.0
26/08:19pm 17.6 16.6 14.5 82 1.8 SSW 13 17 7 9 1011.6 - 0.0
26/08:00pm 17.6 15.5 14.7 83 1.7 S 19 24 10 13 1011.6 - 0.0
26/07:30pm 19.3 16.9 14.5 74 2.8 SSW 20 28 11 15 1011.2 - 0.0
26/07:00pm 20.6 18.2 13.9 65 3.9 SW 19 24 10 13 1011.1 - 0.0
26/06:30pm 21.4 18.6 13.2 59 4.7 SW 20 26 11 14 1010.7 - 0.0
26/06:00pm 22.6 18.8 13.5 56 5.3 SSW 26 33 14 18 1010.4 1010.3 0.0
26/05:30pm 22.9 19.7 13.2 54 5.6 SSW 22 28 12 15 1010.3 - 0.0
26/05:00pm 23.4 19.8 13.0 52 6.0 SSW 24 32 13 17 1010.1 - 0.0
26/04:30pm 24.2 20.3 12.1 46 6.9 SSW 24 33 13 18 1010.2 - 0.0
26/04:00pm 24.7 20.4 12.1 45 7.2 SW 26 35 14 19 1010.3 - 0.0
26/03:30pm 24.5 20.3 12.3 46 7.0 SW 26 35 14 19 1010.5 - 0.0
26/03:00pm 25.4 22.0 11.1 40 8.1 W 20 30 11 16 1010.7 1010.6 0.0
26/02:30pm 24.6 20.9 11.6 44 7.4 SSW 22 30 12 16 1010.9 - 0.0
26/02:00pm 24.9 21.9 12.0 44 7.4 WSW 19 30 10 16 1011.1 - 0.0
26/01:30pm 25.8 24.0 12.1 42 7.9 WSW 13 24 7 13 1011.3 - 0.0
26/01:00pm 23.8 21.9 11.8 47 6.8 WSW 13 19 7 10 1011.7 - 0.0
26/12:30pm 23.2 21.3 11.7 48 6.5 W 13 20 7 11 1012.1 - 0.0
26/12:00pm 21.2 18.7 11.1 52 5.6 SSW 15 22 8 12 1012.6 1012.4 0.0
26/11:30am 21.7 19.4 11.7 53 5.6 SW 15 24 8 13 1012.8 - 0.0
26/11:00am 19.7 18.0 12.4 62 4.1 WSW 13 20 7 11 1013.1 - 0.0
26/10:30am 18.7 17.5 12.8 68 3.3 WSW 11 15 6 8 1013.0 - 0.0
26/10:00am 17.3 15.3 12.6 74 2.6 WSW 15 19 8 10 1013.1 - 0.0
26/09:30am 16.9 15.2 12.6 76 2.4 WSW 13 17 7 9 1012.9 - 0.0
26/09:00am 16.4 15.6 12.8 79 2.0 WSW 9 13 5 7 1012.7 1012.5 0.0
26/08:30am 15.5 14.7 13.0 85 1.4 W 9 11 5 6 1012.5 - 0.0
26/08:00am 14.7 13.9 12.9 89 1.0 W 9 11 5 6 1012.1 - 0.0
26/07:30am 13.3 12.9 12.4 94 0.5 WNW 6 9 3 5 1011.9 - 0.0
26/07:00am 13.3 12.3 12.2 93 0.6 WNW 9 9 5 5 1011.7 - 0.0
26/06:30am 13.4 12.5 12.5 94 0.5 W 9 11 5 6 1011.6 - 0.0
26/06:00am 13.3 13.7 12.4 94 0.5 N 2 7 1 4 1010.8 1010.7 0.0
26/05:30am 13.9 13.4 12.8 93 0.6 WSW 7 11 4 6 1010.6 - 0.0
26/05:15am 14.2 12.6 12.9 92 0.7 WSW 13 17 7 9 1011.1 - 0.0
26/05:00am 14.4 14.1 13.3 93 0.6 WSW 7 9 4 5 1010.7 - 0.0
26/04:46am 14.5 13.8 13.2 92 0.7 SW 9 13 5 7 1010.8 - 0.0
26/04:30am 14.4 14.1 13.3 93 0.6 WSW 7 11 4 6 1010.3 - 0.0
26/04:00am 14.5 14.4 13.4 93 0.6 NNE 6 9 3 5 1010.2 - 0.0
26/03:50am 14.5 14.4 13.4 93 0.6 N 6 7 3 4 1010.2 - 0.0
26/03:30am 14.7 14.4 13.4 92 0.7 W 7 9 4 5 1010.9 - 0.0
26/03:22am 14.7 14.1 13.4 92 0.7 WSW 9 11 5 6 1011.0 - 0.0
26/03:00am 14.7 14.1 13.6 93 0.6 WNW 9 11 5 6 1011.0 1010.9 0.0
26/02:33am 14.8 13.9 13.7 93 0.6 WSW 11 13 6 7 1011.3 - 0.0
26/02:30am 14.8 13.9 13.7 93 0.6 WSW 11 13 6 7 1011.4 - 0.0
26/02:22am 14.8 13.6 13.9 94 0.5 WSW 13 17 7 9 1011.6 - 0.0
26/02:00am 14.6 13.7 13.7 94 0.5 WSW 11 15 6 8 1011.8 - 0.0
26/01:30am 14.7 14.8 13.8 94 0.5 W 6 11 3 6 1011.7 - 0.0
26/01:00am 14.7 15.1 13.6 93 0.6 WSW 4 7 2 4 1011.7 - 0.0
26/12:30am 15.2 16.5 14.0 92 0.7 CALM 0 0 0 0 1012.0 - 0.0
26/12:28am 15.2 16.5 14.0 92 0.7 CALM 0 0 0 0 1012.0 - 0.0
26/12:00am 15.6 15.2 14.2 91 0.8 SW 9 13 5 7 1012.4 1012.2 0.0
 
Date/Time
CDT
Temp
°C
App
Temp
°C
Dew
Point
Rel
Hum
%
Delta-T
°C
Wind Press
QNH
hPa
Press
MSL
hPa
Rain
since 9 am
mm
Dir
 
Spd
km/h
Gust
km/h
Spd
kts
Gust
kts
25/11:30pm 15.6 14.5 14.2 91 0.8 SW 13 17 7 9 1013.1 - 0.0
25/11:00pm 15.7 14.6 14.3 91 0.8 SSW 13 17 7 9 1013.0 - 0.0
25/10:30pm 15.9 14.0 14.3 90 0.9 SW 17 20 9 11 1013.4 - 0.0
25/10:00pm 16.4 14.7 14.7 90 1.0 SSW 17 24 9 13 1013.7 - 0.0
25/09:30pm 16.2 14.4 14.5 90 1.0 SSW 17 20 9 11 1013.2 - 0.0
25/09:01pm 16.3 14.5 14.4 88 1.1 SSW 17 20 9 11 1013.2 - 0.0
25/09:00pm 16.2 14.4 14.5 90 1.0 SSW 17 - 9 - - 1012.9 0.0
25/06:00pm 20.0 17.5 13.4 65 3.8 S 19 - 10 - - 1012.1 -
25/04:00pm 22.1 18.3 12.4 54 5.5 SSW 24 35 13 19 1013.3 - 0.0
25/03:30pm 22.2 19.2 12.1 52 5.7 S 19 26 10 14 1013.4 - 0.0
25/03:00pm 24.4 21.0 12.4 47 6.9 SSW 22 32 12 17 1014.0 1013.8 0.0
25/02:30pm 22.5 19.5 11.9 51 6.0 SSW 19 30 10 16 1014.3 - 0.0
25/02:00pm 22.2 20.0 10.8 48 6.3 S 13 26 7 14 1014.6 - 0.0
25/01:30pm 22.1 19.7 10.2 46 6.5 SW 13 20 7 11 1015.2 - 0.0
25/01:00pm 22.3 18.8 10.9 48 6.3 SSE 20 28 11 15 1015.5 - 0.0
25/12:30pm 20.1 16.9 11.4 57 4.8 S 19 26 10 14 1016.5 - 0.0
25/12:00pm 21.0 18.6 11.4 54 5.3 S 15 20 8 11 1016.8 1016.7 0.0
25/11:30am 20.5 16.7 11.0 54 5.2 SSE 22 30 12 16 1017.0 - 0.0
25/11:00am 20.1 16.4 11.4 57 4.8 SE 22 28 12 15 1017.7 - 0.0
25/10:30am 19.8 16.3 11.0 57 4.8 SE 20 28 11 15 1017.9 - 0.0
25/10:00am 19.2 14.9 10.9 58 4.5 SE 24 30 13 16 1017.9 - 0.0
25/09:30am 18.7 14.3 10.5 59 4.4 S 24 28 13 15 1017.8 - 0.0
25/09:00am 16.6 12.6 10.4 67 3.3 SSE 22 32 12 17 1017.8 1017.7 0.0
25/08:30am 14.9 11.9 10.5 75 2.3 SSE 17 26 9 14 1018.3 - 0.0
25/08:00am 12.7 10.7 10.2 85 1.3 S 11 13 6 7 1018.2 - 0.0
25/07:30am 10.3 8.7 8.9 91 0.7 S 7 9 4 5 1018.1 - 0.0
25/07:00am 9.4 7.6 7.9 90 0.7 SSE 7 9 4 5 1017.5 - 0.0
25/06:30am 9.2 6.5 7.5 89 0.8 SSE 11 11 6 6 1017.7 - 0.0
25/06:00am 9.4 6.7 7.5 88 0.9 S 11 13 6 7 1018.2 1018.1 0.0
25/05:30am 9.3 6.7 7.6 89 0.8 S 11 11 6 6 1018.5 - 0.0
25/05:00am 9.0 6.7 7.3 89 0.8 SSW 9 11 5 6 1018.2 - 0.0
25/04:30am 8.9 6.1 7.0 88 0.9 S 11 11 6 6 1018.4 - 0.0
25/04:00am 9.1 6.7 7.2 88 0.9 SSE 9 11 5 6 1018.6 - 0.0
25/03:30am 9.2 6.9 7.5 89 0.8 S 9 9 5 5 1018.8 - 0.0
25/03:00am 9.0 6.6 7.1 88 0.9 S 9 9 5 5 1019.0 1018.9 0.0
25/02:30am 9.0 6.6 7.1 88 0.9 SSW 9 9 5 5 1019.2 - 0.0
25/02:00am 9.2 6.3 6.6 84 1.2 S 11 11 6 6 1019.5 - 0.0
25/01:30am 10.1 7.7 6.9 80 1.5 SE 9 11 5 6 1019.7 - 0.0
25/01:00am 10.3 7.5 6.9 79 1.6 SE 11 13 6 7 1020.1 - 0.0
25/12:30am 10.7 7.2 7.1 78 1.7 SE 15 19 8 10 1020.2 - 0.0
25/12:00am 10.4 7.2 6.8 78 1.7 SSE 13 17 7 9 1021.0 1020.9 0.0
 
Date/Time
CDT
Temp
°C
App
Temp
°C
Dew
Point
Rel
Hum
%
Delta-T
°C
Wind Press
QNH
hPa
Press
MSL
hPa
Rain
since 9 am
mm
Dir
 
Spd
km/h
Gust
km/h
Spd
kts
Gust
kts
24/11:30pm 10.3 7.5 6.9 79 1.6 SSE 11 13 6 7 1021.2 - 0.0
24/11:00pm 10.7 8.3 6.9 77 1.8 SSE 9 13 5 7 1021.6 - 0.0
24/10:30pm 11.0 8.2 6.8 75 2.0 SSE 11 13 6 7 1021.7 - 0.0
24/10:00pm 12.0 8.8 6.8 70 2.5 SSE 13 17 7 9 1022.0 - 0.0
24/09:30pm 12.8 9.3 7.0 68 2.8 SSE 15 19 8 10 1022.0 - 0.0
24/09:00pm 13.4 9.1 6.8 64 3.2 SSE 19 24 10 13 1021.8 1021.7 0.0
24/08:30pm 13.9 8.8 5.9 58 3.8 SSE 22 28 12 15 1021.7 - 0.0
24/08:00pm 14.8 8.9 6.0 55 4.2 SSE 26 33 14 18 1021.6 - 0.0
24/07:30pm 15.7 9.2 4.6 47 5.2 S 28 37 15 20 1021.5 - 0.0
24/07:00pm 16.6 9.2 3.9 42 5.9 S 32 39 17 21 1021.0 - 0.0
24/06:30pm 17.4 10.0 4.8 43 6.0 SSE 33 39 18 21 1021.0 - 0.0

Other Formats:

Comma delimited format used in spreadsheet applications
http://www.bom.gov.au/fwo/IDS60801/IDS60801.94821.axf

JavaScript Object Notation format (JSON) in row-major order
http://www.bom.gov.au/fwo/IDS60801/IDS60801.94821.json